sensor_id;sensor_type;location;lat;lon;timestamp;temperature;humidity
2054;DHT22;1032;52.542;13.440;2022-09-16T00:00:41;14.30;99.90
2054;DHT22;1032;52.542;13.440;2022-09-16T00:03:08;14.60;99.90
2054;DHT22;1032;52.542;13.440;2022-09-16T00:05:39;14.40;99.90
2054;DHT22;1032;52.542;13.440;2022-09-16T00:08:06;14.90;99.90
2054;DHT22;1032;52.542;13.440;2022-09-16T00:10:33;14.60;99.90
2054;DHT22;1032;52.542;13.440;2022-09-16T00:13:00;14.30;99.90
2054;DHT22;1032;52.542;13.440;2022-09-16T00:15:28;14.20;99.90
2054;DHT22;1032;52.542;13.440;2022-09-16T00:17:55;14.60;99.90
2054;DHT22;1032;52.542;13.440;2022-09-16T00:20:21;14.30;99.90
2054;DHT22;1032;52.542;13.440;2022-09-16T00:22:48;14.20;99.90
2054;DHT22;1032;52.542;13.440;2022-09-16T00:25:15;14.10;99.90
2054;DHT22;1032;52.542;13.440;2022-09-16T00:27:41;14.60;99.90
2054;DHT22;1032;52.542;13.440;2022-09-16T00:30:08;14.10;99.90
2054;DHT22;1032;52.542;13.440;2022-09-16T00:32:37;14.10;99.90
2054;DHT22;1032;52.542;13.440;2022-09-16T00:35:04;14.00;99.90
2054;DHT22;1032;52.542;13.440;2022-09-16T00:37:31;13.90;99.90
2054;DHT22;1032;52.542;13.440;2022-09-16T00:39:57;13.50;99.90
2054;DHT22;1032;52.542;13.440;2022-09-16T00:42:24;13.90;99.90
2054;DHT22;1032;52.542;13.440;2022-09-16T00:44:54;13.80;99.90
2054;DHT22;1032;52.542;13.440;2022-09-16T00:47:25;13.90;99.90
2054;DHT22;1032;52.542;13.440;2022-09-16T00:49:58;13.60;99.90
2054;DHT22;1032;52.542;13.440;2022-09-16T00:52:28;14.20;99.90
2054;DHT22;1032;52.542;13.440;2022-09-16T00:54:56;13.90;99.90
2054;DHT22;1032;52.542;13.440;2022-09-16T00:57:24;13.70;99.90
2054;DHT22;1032;52.542;13.440;2022-09-16T00:59:52;13.80;99.90
2054;DHT22;1032;52.542;13.440;2022-09-16T01:02:21;14.00;99.90
2054;DHT22;1032;52.542;13.440;2022-09-16T01:04:52;14.10;99.90
2054;DHT22;1032;52.542;13.440;2022-09-16T01:07:25;13.80;99.90
2054;DHT22;1032;52.542;13.440;2022-09-16T01:09:52;13.80;99.90
2054;DHT22;1032;52.542;13.440;2022-09-16T01:12:20;13.80;99.90
2054;DHT22;1032;52.542;13.440;2022-09-16T01:14:47;13.90;99.90
2054;DHT22;1032;52.542;13.440;2022-09-16T01:17:26;13.70;99.90
2054;DHT22;1032;52.542;13.440;2022-09-16T01:23:17;13.70;99.90
2054;DHT22;1032;52.542;13.440;2022-09-16T01:26:02;13.60;99.90
2054;DHT22;1032;52.542;13.440;2022-09-16T01:28:51;13.60;99.90
2054;DHT22;1032;52.542;13.440;2022-09-16T01:31:26;13.80;99.90
2054;DHT22;1032;52.542;13.440;2022-09-16T01:34:00;13.50;99.90
2054;DHT22;1032;52.542;13.440;2022-09-16T01:36:37;13.60;99.90
2054;DHT22;1032;52.542;13.440;2022-09-16T01:39:17;13.80;99.90
2054;DHT22;1032;52.542;13.440;2022-09-16T01:42:01;13.20;99.90
2054;DHT22;1032;52.542;13.440;2022-09-16T01:44:36;13.50;99.90
2054;DHT22;1032;52.542;13.440;2022-09-16T01:47:11;13.00;99.90
2054;DHT22;1032;52.542;13.440;2022-09-16T01:49:45;13.60;99.90
2054;DHT22;1032;52.542;13.440;2022-09-16T01:52:18;13.50;99.90
2054;DHT22;1032;52.542;13.440;2022-09-16T01:54:51;13.20;99.90
2054;DHT22;1032;52.542;13.440;2022-09-16T01:57:22;13.20;99.90
2054;DHT22;1032;52.542;13.440;2022-09-16T01:59:53;13.90;99.90
2054;DHT22;1032;52.542;13.440;2022-09-16T02:02:27;13.30;99.90
2054;DHT22;1032;52.542;13.440;2022-09-16T02:04:56;13.40;99.90
2054;DHT22;1032;52.542;13.440;2022-09-16T02:07:27;13.30;99.90
2054;DHT22;1032;52.542;13.440;2022-09-16T02:09:58;13.30;99.90
2054;DHT22;1032;52.542;13.440;2022-09-16T02:12:28;13.60;99.90
2054;DHT22;1032;52.542;13.440;2022-09-16T02:15:00;13.20;99.90
2054;DHT22;1032;52.542;13.440;2022-09-16T02:17:32;13.60;99.90
2054;DHT22;1032;52.542;13.440;2022-09-16T02:20:02;13.20;99.90
2054;DHT22;1032;52.542;13.440;2022-09-16T02:22:35;12.70;99.90
2054;DHT22;1032;52.542;13.440;2022-09-16T02:25:04;13.10;99.90
2054;DHT22;1032;52.542;13.440;2022-09-16T02:27:34;13.20;99.90
2054;DHT22;1032;52.542;13.440;2022-09-16T02:30:05;13.40;99.90
2054;DHT22;1032;52.542;13.440;2022-09-16T02:32:35;13.00;99.90
2054;DHT22;1032;52.542;13.440;2022-09-16T02:35:05;13.20;99.90
2054;DHT22;1032;52.542;13.440;2022-09-16T02:37:36;13.20;99.90
2054;DHT22;1032;52.542;13.440;2022-09-16T02:40:10;12.90;99.90
2054;DHT22;1032;52.542;13.440;2022-09-16T02:42:37;13.30;99.90
2054;DHT22;1032;52.542;13.440;2022-09-16T02:45:06;13.10;99.90
2054;DHT22;1032;52.542;13.440;2022-09-16T02:47:40;13.10;99.90
2054;DHT22;1032;52.542;13.440;2022-09-16T02:50:14;13.40;99.90
2054;DHT22;1032;52.542;13.440;2022-09-16T02:52:45;13.00;99.90
2054;DHT22;1032;52.542;13.440;2022-09-16T02:55:21;13.20;99.90
2054;DHT22;1032;52.542;13.440;2022-09-16T02:57:51;12.50;99.90
2054;DHT22;1032;52.542;13.440;2022-09-16T03:00:18;13.10;99.90
2054;DHT22;1032;52.542;13.440;2022-09-16T03:02:46;13.60;99.90
2054;DHT22;1032;52.542;13.440;2022-09-16T03:05:13;13.00;99.90
2054;DHT22;1032;52.542;13.440;2022-09-16T03:07:40;13.00;99.90
2054;DHT22;1032;52.542;13.440;2022-09-16T03:10:09;13.20;99.90
2054;DHT22;1032;52.542;13.440;2022-09-16T03:12:46;12.50;99.90
2054;DHT22;1032;52.542;13.440;2022-09-16T03:15:36;13.10;99.90
2054;DHT22;1032;52.542;13.440;2022-09-16T03:18:16;12.90;99.90
2054;DHT22;1032;52.542;13.440;2022-09-16T03:20:50;13.50;99.90
2054;DHT22;1032;52.542;13.440;2022-09-16T03:23:28;13.30;99.90
2054;DHT22;1032;52.542;13.440;2022-09-16T03:25:59;12.80;99.90
2054;DHT22;1032;52.542;13.440;2022-09-16T03:28:33;13.30;99.90
2054;DHT22;1032;52.542;13.440;2022-09-16T03:31:04;12.90;99.90
2054;DHT22;1032;52.542;13.440;2022-09-16T03:33:37;13.30;99.90
2054;DHT22;1032;52.542;13.440;2022-09-16T03:36:06;12.90;99.90
2054;DHT22;1032;52.542;13.440;2022-09-16T03:38:36;12.70;99.90
2054;DHT22;1032;52.542;13.440;2022-09-16T03:41:05;13.00;99.90
2054;DHT22;1032;52.542;13.440;2022-09-16T03:43:32;13.60;99.90
2054;DHT22;1032;52.542;13.440;2022-09-16T03:45:59;12.80;99.90
2054;DHT22;1032;52.542;13.440;2022-09-16T03:48:25;12.80;99.90
2054;DHT22;1032;52.542;13.440;2022-09-16T03:50:53;13.00;99.90
2054;DHT22;1032;52.542;13.440;2022-09-16T03:53:20;13.00;99.90
2054;DHT22;1032;52.542;13.440;2022-09-16T03:55:47;13.60;99.90
2054;DHT22;1032;52.542;13.440;2022-09-16T03:58:14;12.90;99.90
2054;DHT22;1032;52.542;13.440;2022-09-16T04:00:41;12.80;99.90
2054;DHT22;1032;52.542;13.440;2022-09-16T04:03:07;13.20;99.90
2054;DHT22;1032;52.542;13.440;2022-09-16T04:05:34;13.50;99.90
2054;DHT22;1032;52.542;13.440;2022-09-16T04:08:02;13.70;99.90
2054;DHT22;1032;52.542;13.440;2022-09-16T04:10:28;13.70;99.90
2054;DHT22;1032;52.542;13.440;2022-09-16T04:12:56;13.30;99.90
2054;DHT22;1032;52.542;13.440;2022-09-16T04:15:23;13.40;99.90
2054;DHT22;1032;52.542;13.440;2022-09-16T04:17:50;13.50;99.90
2054;DHT22;1032;52.542;13.440;2022-09-16T04:20:17;13.40;99.90
2054;DHT22;1032;52.542;13.440;2022-09-16T04:22:43;12.80;99.90
2054;DHT22;1032;52.542;13.440;2022-09-16T04:25:11;13.60;99.90
2054;DHT22;1032;52.542;13.440;2022-09-16T04:27:38;13.20;99.90
2054;DHT22;1032;52.542;13.440;2022-09-16T04:30:06;13.10;99.90
2054;DHT22;1032;52.542;13.440;2022-09-16T04:32:32;13.20;99.90
2054;DHT22;1032;52.542;13.440;2022-09-16T04:34:59;13.10;99.90
2054;DHT22;1032;52.542;13.440;2022-09-16T04:37:28;13.20;99.90
2054;DHT22;1032;52.542;13.440;2022-09-16T04:39:55;13.10;99.90
2054;DHT22;1032;52.542;13.440;2022-09-16T04:42:23;13.10;99.90
2054;DHT22;1032;52.542;13.440;2022-09-16T04:44:50;13.10;99.90
2054;DHT22;1032;52.542;13.440;2022-09-16T04:47:16;12.70;99.90
2054;DHT22;1032;52.542;13.440;2022-09-16T04:49:43;13.10;99.90
2054;DHT22;1032;52.542;13.440;2022-09-16T04:52:10;12.80;99.90
2054;DHT22;1032;52.542;13.440;2022-09-16T04:54:36;13.20;99.90
2054;DHT22;1032;52.542;13.440;2022-09-16T04:57:03;13.00;99.90
2054;DHT22;1032;52.542;13.440;2022-09-16T04:59:31;13.20;99.90
2054;DHT22;1032;52.542;13.440;2022-09-16T05:01:57;12.80;99.90
2054;DHT22;1032;52.542;13.440;2022-09-16T05:04:24;13.10;99.90
2054;DHT22;1032;52.542;13.440;2022-09-16T05:06:51;13.00;99.90
2054;DHT22;1032;52.542;13.440;2022-09-16T05:09:17;12.90;99.90
2054;DHT22;1032;52.542;13.440;2022-09-16T05:11:47;13.10;99.90
2054;DHT22;1032;52.542;13.440;2022-09-16T05:14:15;13.20;99.90
2054;DHT22;1032;52.542;13.440;2022-09-16T05:16:44;13.20;99.90
2054;DHT22;1032;52.542;13.440;2022-09-16T05:19:11;13.10;99.90
2054;DHT22;1032;52.542;13.440;2022-09-16T05:21:39;13.10;99.90
2054;DHT22;1032;52.542;13.440;2022-09-16T05:24:08;13.10;99.90
2054;DHT22;1032;52.542;13.440;2022-09-16T05:26:36;13.00;99.90
2054;DHT22;1032;52.542;13.440;2022-09-16T05:29:04;13.10;99.90
2054;DHT22;1032;52.542;13.440;2022-09-16T05:31:33;13.20;99.90
2054;DHT22;1032;52.542;13.440;2022-09-16T05:34:05;13.20;99.90
2054;DHT22;1032;52.542;13.440;2022-09-16T05:36:33;13.30;99.90
2054;DHT22;1032;52.542;13.440;2022-09-16T05:39:01;13.50;99.90
2054;DHT22;1032;52.542;13.440;2022-09-16T05:41:28;13.50;99.90
2054;DHT22;1032;52.542;13.440;2022-09-16T05:43:57;13.80;99.90
2054;DHT22;1032;52.542;13.440;2022-09-16T05:46:24;13.50;99.90
2054;DHT22;1032;52.542;13.440;2022-09-16T05:48:50;13.60;99.90
2054;DHT22;1032;52.542;13.440;2022-09-16T05:51:20;13.80;99.90
2054;DHT22;1032;52.542;13.440;2022-09-16T05:53:48;13.90;99.90
2054;DHT22;1032;52.542;13.440;2022-09-16T05:56:17;14.00;99.90
2054;DHT22;1032;52.542;13.440;2022-09-16T05:58:44;13.70;99.90
2054;DHT22;1032;52.542;13.440;2022-09-16T06:01:13;13.80;99.90
2054;DHT22;1032;52.542;13.440;2022-09-16T06:03:41;13.90;99.90
2054;DHT22;1032;52.542;13.440;2022-09-16T06:06:11;14.00;99.90
2054;DHT22;1032;52.542;13.440;2022-09-16T06:08:40;14.20;99.90
2054;DHT22;1032;52.542;13.440;2022-09-16T06:11:08;14.00;99.90
2054;DHT22;1032;52.542;13.440;2022-09-16T06:13:36;14.00;99.90
2054;DHT22;1032;52.542;13.440;2022-09-16T06:16:03;14.10;99.90
2054;DHT22;1032;52.542;13.440;2022-09-16T06:18:31;14.20;99.90
2054;DHT22;1032;52.542;13.440;2022-09-16T06:21:03;14.30;99.90
2054;DHT22;1032;52.542;13.440;2022-09-16T06:23:30;14.30;99.90
2054;DHT22;1032;52.542;13.440;2022-09-16T06:26:02;13.60;99.90
2054;DHT22;1032;52.542;13.440;2022-09-16T06:28:30;14.30;99.90
2054;DHT22;1032;52.542;13.440;2022-09-16T06:31:02;14.40;99.90
2054;DHT22;1032;52.542;13.440;2022-09-16T06:33:29;14.60;99.90
2054;DHT22;1032;52.542;13.440;2022-09-16T06:35:55;14.40;99.90
2054;DHT22;1032;52.542;13.440;2022-09-16T06:38:22;14.10;99.90
2054;DHT22;1032;52.542;13.440;2022-09-16T06:40:49;14.60;99.90
2054;DHT22;1032;52.542;13.440;2022-09-16T06:43:17;14.60;99.90
2054;DHT22;1032;52.542;13.440;2022-09-16T06:45:44;15.00;99.90
2054;DHT22;1032;52.542;13.440;2022-09-16T06:48:10;14.80;99.90
2054;DHT22;1032;52.542;13.440;2022-09-16T06:50:37;14.90;99.90
2054;DHT22;1032;52.542;13.440;2022-09-16T06:53:03;15.30;99.90
2054;DHT22;1032;52.542;13.440;2022-09-16T06:55:30;15.00;99.90
2054;DHT22;1032;52.542;13.440;2022-09-16T06:57:57;15.10;99.90
2054;DHT22;1032;52.542;13.440;2022-09-16T07:00:24;15.30;99.90
2054;DHT22;1032;52.542;13.440;2022-09-16T07:02:51;15.30;99.90
2054;DHT22;1032;52.542;13.440;2022-09-16T07:05:18;14.80;99.90
2054;DHT22;1032;52.542;13.440;2022-09-16T07:07:44;15.30;99.90
2054;DHT22;1032;52.542;13.440;2022-09-16T07:10:11;15.30;99.90
2054;DHT22;1032;52.542;13.440;2022-09-16T07:12:38;15.50;99.90
2054;DHT22;1032;52.542;13.440;2022-09-16T07:15:05;15.50;99.90
2054;DHT22;1032;52.542;13.440;2022-09-16T07:17:34;15.40;99.90
2054;DHT22;1032;52.542;13.440;2022-09-16T07:20:01;15.40;99.90
2054;DHT22;1032;52.542;13.440;2022-09-16T07:22:29;15.50;99.90
2054;DHT22;1032;52.542;13.440;2022-09-16T07:24:56;15.40;99.90
2054;DHT22;1032;52.542;13.440;2022-09-16T07:27:23;15.50;99.90
2054;DHT22;1032;52.542;13.440;2022-09-16T07:29:49;15.40;99.90
2054;DHT22;1032;52.542;13.440;2022-09-16T07:32:18;15.50;99.90
2054;DHT22;1032;52.542;13.440;2022-09-16T07:34:45;15.50;99.90
2054;DHT22;1032;52.542;13.440;2022-09-16T07:37:12;15.70;99.90
2054;DHT22;1032;52.542;13.440;2022-09-16T07:39:39;15.70;99.90
2054;DHT22;1032;52.542;13.440;2022-09-16T07:42:05;15.80;99.90
2054;DHT22;1032;52.542;13.440;2022-09-16T07:44:32;15.50;99.90
2054;DHT22;1032;52.542;13.440;2022-09-16T07:46:59;15.70;99.90
2054;DHT22;1032;52.542;13.440;2022-09-16T07:49:25;15.70;99.90
2054;DHT22;1032;52.542;13.440;2022-09-16T07:51:53;16.10;99.90
2054;DHT22;1032;52.542;13.440;2022-09-16T07:54:20;15.80;99.90
2054;DHT22;1032;52.542;13.440;2022-09-16T07:56:47;15.50;99.90
2054;DHT22;1032;52.542;13.440;2022-09-16T07:59:16;16.00;99.90
2054;DHT22;1032;52.542;13.440;2022-09-16T08:01:43;15.80;99.90
2054;DHT22;1032;52.542;13.440;2022-09-16T08:04:10;16.70;99.90
2054;DHT22;1032;52.542;13.440;2022-09-16T08:06:38;16.20;99.90
2054;DHT22;1032;52.542;13.440;2022-09-16T08:09:06;16.40;99.90
2054;DHT22;1032;52.542;13.440;2022-09-16T08:11:33;16.50;99.90
2054;DHT22;1032;52.542;13.440;2022-09-16T08:14:00;16.50;99.90
2054;DHT22;1032;52.542;13.440;2022-09-16T08:16:27;16.60;99.90
2054;DHT22;1032;52.542;13.440;2022-09-16T08:18:55;16.60;99.90
2054;DHT22;1032;52.542;13.440;2022-09-16T08:21:23;16.60;99.90
2054;DHT22;1032;52.542;13.440;2022-09-16T08:23:51;16.50;99.90
2054;DHT22;1032;52.542;13.440;2022-09-16T08:26:20;16.70;99.90
2054;DHT22;1032;52.542;13.440;2022-09-16T08:28:48;16.80;99.90
2054;DHT22;1032;52.542;13.440;2022-09-16T08:31:15;17.00;99.90
2054;DHT22;1032;52.542;13.440;2022-09-16T08:33:42;16.90;99.90
2054;DHT22;1032;52.542;13.440;2022-09-16T08:36:12;16.90;99.90
2054;DHT22;1032;52.542;13.440;2022-09-16T08:38:40;17.00;99.90
2054;DHT22;1032;52.542;13.440;2022-09-16T08:41:21;17.30;99.90
2054;DHT22;1032;52.542;13.440;2022-09-16T08:43:56;17.10;99.90
2054;DHT22;1032;52.542;13.440;2022-09-16T08:46:28;17.10;99.90
2054;DHT22;1032;52.542;13.440;2022-09-16T08:49:14;17.40;99.90
2054;DHT22;1032;52.542;13.440;2022-09-16T08:51:42;17.20;99.90
2054;DHT22;1032;52.542;13.440;2022-09-16T08:54:14;17.20;99.90
2054;DHT22;1032;52.542;13.440;2022-09-16T08:56:46;17.40;99.90
2054;DHT22;1032;52.542;13.440;2022-09-16T08:59:17;17.30;99.90
2054;DHT22;1032;52.542;13.440;2022-09-16T09:01:48;17.30;99.90
2054;DHT22;1032;52.542;13.440;2022-09-16T09:04:17;17.20;99.70
2054;DHT22;1032;52.542;13.440;2022-09-16T09:06:57;17.20;99.70
2054;DHT22;1032;52.542;13.440;2022-09-16T09:09:45;17.50;99.60
2054;DHT22;1032;52.542;13.440;2022-09-16T09:12:23;17.20;99.10
2054;DHT22;1032;52.542;13.440;2022-09-16T09:15:03;17.40;99.30
2054;DHT22;1032;52.542;13.440;2022-09-16T09:17:39;17.50;98.90
2054;DHT22;1032;52.542;13.440;2022-09-16T09:20:15;17.60;98.20
2054;DHT22;1032;52.542;13.440;2022-09-16T09:22:56;17.70;98.00
2054;DHT22;1032;52.542;13.440;2022-09-16T09:25:31;17.50;97.80
2054;DHT22;1032;52.542;13.440;2022-09-16T09:28:16;17.90;97.40
2054;DHT22;1032;52.542;13.440;2022-09-16T09:30:54;17.60;96.80
2054;DHT22;1032;52.542;13.440;2022-09-16T09:33:32;17.80;96.70
2054;DHT22;1032;52.542;13.440;2022-09-16T09:36:14;18.10;96.50
2054;DHT22;1032;52.542;13.440;2022-09-16T09:38:57;18.00;96.10
2054;DHT22;1032;52.542;13.440;2022-09-16T09:41:32;18.00;95.70
2054;DHT22;1032;52.542;13.440;2022-09-16T09:46:53;17.90;94.90
2054;DHT22;1032;52.542;13.440;2022-09-16T09:49:25;17.90;94.30
2054;DHT22;1032;52.542;13.440;2022-09-16T09:51:55;18.00;94.00
2054;DHT22;1032;52.542;13.440;2022-09-16T09:54:26;18.00;93.60
2054;DHT22;1032;52.542;13.440;2022-09-16T09:56:57;18.00;93.40
2054;DHT22;1032;52.542;13.440;2022-09-16T09:59:28;18.00;93.30
2054;DHT22;1032;52.542;13.440;2022-09-16T10:01:57;17.80;92.90
2054;DHT22;1032;52.542;13.440;2022-09-16T10:04:36;17.90;92.70
2054;DHT22;1032;52.542;13.440;2022-09-16T10:07:04;17.90;92.10
2054;DHT22;1032;52.542;13.440;2022-09-16T10:09:32;17.90;92.20
2054;DHT22;1032;52.542;13.440;2022-09-16T10:12:00;18.00;92.10
2054;DHT22;1032;52.542;13.440;2022-09-16T10:14:31;18.40;90.00
2054;DHT22;1032;52.542;13.440;2022-09-16T10:17:00;18.00;89.80
2054;DHT22;1032;52.542;13.440;2022-09-16T10:19:28;18.60;90.40
2054;DHT22;1032;52.542;13.440;2022-09-16T10:22:09;18.40;90.60
2054;DHT22;1032;52.542;13.440;2022-09-16T10:24:37;18.50;90.10
2054;DHT22;1032;52.542;13.440;2022-09-16T10:27:18;17.90;88.40
2054;DHT22;1032;52.542;13.440;2022-09-16T10:29:46;18.40;88.80
2054;DHT22;1032;52.542;13.440;2022-09-16T10:32:17;18.20;89.80
2054;DHT22;1032;52.542;13.440;2022-09-16T10:34:45;18.60;90.40
2054;DHT22;1032;52.542;13.440;2022-09-16T10:37:15;18.00;88.20
2054;DHT22;1032;52.542;13.440;2022-09-16T10:39:49;18.40;89.10
2054;DHT22;1032;52.542;13.440;2022-09-16T10:42:18;18.30;87.90
2054;DHT22;1032;52.542;13.440;2022-09-16T10:44:46;18.30;88.00
2054;DHT22;1032;52.542;13.440;2022-09-16T10:47:19;18.30;88.20
2054;DHT22;1032;52.542;13.440;2022-09-16T10:49:48;18.50;87.90
2054;DHT22;1032;52.542;13.440;2022-09-16T10:52:19;18.40;87.70
2054;DHT22;1032;52.542;13.440;2022-09-16T10:54:46;18.10;85.00
2054;DHT22;1032;52.542;13.440;2022-09-16T10:57:26;18.50;85.60
2054;DHT22;1032;52.542;13.440;2022-09-16T11:00:09;18.50;85.80
2054;DHT22;1032;52.542;13.440;2022-09-16T11:03:04;18.60;85.70
2054;DHT22;1032;52.542;13.440;2022-09-16T11:05:37;19.10;85.40
2054;DHT22;1032;52.542;13.440;2022-09-16T11:08:12;19.00;84.00
2054;DHT22;1032;52.542;13.440;2022-09-16T11:10:43;19.00;84.20
2054;DHT22;1032;52.542;13.440;2022-09-16T11:13:39;18.60;83.00
2054;DHT22;1032;52.542;13.440;2022-09-16T11:19:06;18.90;82.80
2054;DHT22;1032;52.542;13.440;2022-09-16T11:21:56;19.20;82.80
2054;DHT22;1032;52.542;13.440;2022-09-16T11:24:46;19.10;81.20
2054;DHT22;1032;52.542;13.440;2022-09-16T11:27:21;19.00;81.00
2054;DHT22;1032;52.542;13.440;2022-09-16T11:30:00;18.80;80.70
2054;DHT22;1032;52.542;13.440;2022-09-16T11:32:37;19.10;81.30
2054;DHT22;1032;52.542;13.440;2022-09-16T11:35:25;18.70;80.20
2054;DHT22;1032;52.542;13.440;2022-09-16T11:37:58;18.60;80.20
2054;DHT22;1032;52.542;13.440;2022-09-16T11:40:32;18.50;80.70
2054;DHT22;1032;52.542;13.440;2022-09-16T11:43:32;18.50;80.90
2054;DHT22;1032;52.542;13.440;2022-09-16T11:46:06;18.60;80.50
2054;DHT22;1032;52.542;13.440;2022-09-16T11:48:50;18.60;80.80
2054;DHT22;1032;52.542;13.440;2022-09-16T11:51:29;18.60;79.70
2054;DHT22;1032;52.542;13.440;2022-09-16T11:54:26;18.50;79.70
2054;DHT22;1032;52.542;13.440;2022-09-16T11:56:57;18.90;79.00
2054;DHT22;1032;52.542;13.440;2022-09-16T11:59:29;18.90;79.80
2054;DHT22;1032;52.542;13.440;2022-09-16T12:02:01;18.90;78.50
2054;DHT22;1032;52.542;13.440;2022-09-16T12:04:40;18.70;77.30
2054;DHT22;1032;52.542;13.440;2022-09-16T12:07:12;18.90;77.90
2054;DHT22;1032;52.542;13.440;2022-09-16T12:09:43;18.90;77.50
2054;DHT22;1032;52.542;13.440;2022-09-16T12:12:12;18.90;77.80
2054;DHT22;1032;52.542;13.440;2022-09-16T12:14:42;18.90;78.20
2054;DHT22;1032;52.542;13.440;2022-09-16T12:17:14;18.90;78.10
2054;DHT22;1032;52.542;13.440;2022-09-16T12:19:47;19.10;78.20
2054;DHT22;1032;52.542;13.440;2022-09-16T12:22:19;19.00;78.00
2054;DHT22;1032;52.542;13.440;2022-09-16T12:24:50;19.00;77.40
2054;DHT22;1032;52.542;13.440;2022-09-16T12:27:31;18.80;77.00
2054;DHT22;1032;52.542;13.440;2022-09-16T12:30:03;18.80;75.50
2054;DHT22;1032;52.542;13.440;2022-09-16T12:32:36;18.70;74.50
2054;DHT22;1032;52.542;13.440;2022-09-16T12:35:11;18.90;74.60
2054;DHT22;1032;52.542;13.440;2022-09-16T12:37:45;18.70;74.60
2054;DHT22;1032;52.542;13.440;2022-09-16T12:40:16;18.60;73.00
2054;DHT22;1032;52.542;13.440;2022-09-16T12:43:13;19.00;73.60
2054;DHT22;1032;52.542;13.440;2022-09-16T12:46:04;18.70;73.10
2054;DHT22;1032;52.542;13.440;2022-09-16T12:48:51;18.80;73.80
2054;DHT22;1032;52.542;13.440;2022-09-16T12:51:48;18.70;72.80
2054;DHT22;1032;52.542;13.440;2022-09-16T12:54:51;18.60;72.60
2054;DHT22;1032;52.542;13.440;2022-09-16T12:57:33;18.60;72.50
2054;DHT22;1032;52.542;13.440;2022-09-16T13:00:11;18.60;73.50
2054;DHT22;1032;52.542;13.440;2022-09-16T13:02:41;18.20;73.40
2054;DHT22;1032;52.542;13.440;2022-09-16T13:05:13;18.50;73.80
2054;DHT22;1032;52.542;13.440;2022-09-16T13:07:48;18.70;74.10
2054;DHT22;1032;52.542;13.440;2022-09-16T13:10:19;18.70;72.80
2054;DHT22;1032;52.542;13.440;2022-09-16T13:12:50;18.80;72.20
2054;DHT22;1032;52.542;13.440;2022-09-16T13:15:25;18.80;72.10
2054;DHT22;1032;52.542;13.440;2022-09-16T13:17:52;18.30;71.50
2054;DHT22;1032;52.542;13.440;2022-09-16T13:20:23;18.60;72.10
2054;DHT22;1032;52.542;13.440;2022-09-16T13:23:01;18.50;71.20
2054;DHT22;1032;52.542;13.440;2022-09-16T13:25:33;18.50;70.90
2054;DHT22;1032;52.542;13.440;2022-09-16T13:28:02;18.70;70.80
2054;DHT22;1032;52.542;13.440;2022-09-16T13:30:35;18.40;70.30
2054;DHT22;1032;52.542;13.440;2022-09-16T13:33:22;18.40;70.30
2054;DHT22;1032;52.542;13.440;2022-09-16T13:36:02;18.60;70.00
2054;DHT22;1032;52.542;13.440;2022-09-16T13:38:38;18.50;69.20
2054;DHT22;1032;52.542;13.440;2022-09-16T13:41:05;18.40;68.90
2054;DHT22;1032;52.542;13.440;2022-09-16T13:43:37;18.80;69.10
2054;DHT22;1032;52.542;13.440;2022-09-16T13:46:30;18.80;67.20
2054;DHT22;1032;52.542;13.440;2022-09-16T13:49:06;18.90;66.30
2054;DHT22;1032;52.542;13.440;2022-09-16T13:51:39;19.00;67.30
2054;DHT22;1032;52.542;13.440;2022-09-16T13:54:20;18.90;67.90
2054;DHT22;1032;52.542;13.440;2022-09-16T13:57:02;19.10;68.30
2054;DHT22;1032;52.542;13.440;2022-09-16T13:59:44;18.90;68.10
2054;DHT22;1032;52.542;13.440;2022-09-16T14:02:23;18.90;68.20
2054;DHT22;1032;52.542;13.440;2022-09-16T14:05:10;18.90;68.70
2054;DHT22;1032;52.542;13.440;2022-09-16T14:07:43;18.80;67.90
2054;DHT22;1032;52.542;13.440;2022-09-16T14:10:18;18.70;68.00
2054;DHT22;1032;52.542;13.440;2022-09-16T14:12:56;18.80;67.80
2054;DHT22;1032;52.542;13.440;2022-09-16T14:15:24;18.70;67.00
2054;DHT22;1032;52.542;13.440;2022-09-16T14:17:55;18.80;68.20
2054;DHT22;1032;52.542;13.440;2022-09-16T14:20:24;18.70;67.40
2054;DHT22;1032;52.542;13.440;2022-09-16T14:22:59;19.00;67.80
2054;DHT22;1032;52.542;13.440;2022-09-16T14:25:30;18.80;67.40
2054;DHT22;1032;52.542;13.440;2022-09-16T14:28:08;19.00;66.90
2054;DHT22;1032;52.542;13.440;2022-09-16T14:30:35;19.00;65.90
2054;DHT22;1032;52.542;13.440;2022-09-16T14:33:02;19.20;66.30
2054;DHT22;1032;52.542;13.440;2022-09-16T14:35:29;19.20;65.70
2054;DHT22;1032;52.542;13.440;2022-09-16T14:37:59;19.20;64.10
2054;DHT22;1032;52.542;13.440;2022-09-16T14:40:28;19.00;63.80
2054;DHT22;1032;52.542;13.440;2022-09-16T14:42:58;19.10;63.70
2054;DHT22;1032;52.542;13.440;2022-09-16T14:45:26;19.60;63.50
2054;DHT22;1032;52.542;13.440;2022-09-16T14:47:56;19.30;62.90
2054;DHT22;1032;52.542;13.440;2022-09-16T14:50:26;19.20;63.00
2054;DHT22;1032;52.542;13.440;2022-09-16T14:52:54;19.20;62.90
2054;DHT22;1032;52.542;13.440;2022-09-16T14:55:23;19.30;63.00
2054;DHT22;1032;52.542;13.440;2022-09-16T14:57:52;19.30;62.00
2054;DHT22;1032;52.542;13.440;2022-09-16T15:00:19;19.50;61.10
2054;DHT22;1032;52.542;13.440;2022-09-16T15:02:48;19.10;60.40
2054;DHT22;1032;52.542;13.440;2022-09-16T15:05:21;19.60;59.80
2054;DHT22;1032;52.542;13.440;2022-09-16T15:07:50;19.30;58.90
2054;DHT22;1032;52.542;13.440;2022-09-16T15:10:20;19.20;59.00
2054;DHT22;1032;52.542;13.440;2022-09-16T15:12:50;19.30;59.50
2054;DHT22;1032;52.542;13.440;2022-09-16T15:15:21;19.00;58.90
2054;DHT22;1032;52.542;13.440;2022-09-16T15:17:53;19.30;59.10
2054;DHT22;1032;52.542;13.440;2022-09-16T15:20:24;18.80;59.00
2054;DHT22;1032;52.542;13.440;2022-09-16T15:22:51;19.20;59.20
2054;DHT22;1032;52.542;13.440;2022-09-16T15:25:20;19.10;59.30
2054;DHT22;1032;52.542;13.440;2022-09-16T15:27:46;19.40;59.70
2054;DHT22;1032;52.542;13.440;2022-09-16T15:30:22;18.90;59.40
2054;DHT22;1032;52.542;13.440;2022-09-16T15:32:50;18.70;59.40
2054;DHT22;1032;52.542;13.440;2022-09-16T15:35:22;19.00;60.30
2054;DHT22;1032;52.542;13.440;2022-09-16T15:37:49;19.20;60.70
2054;DHT22;1032;52.542;13.440;2022-09-16T15:40:29;19.00;61.00
2054;DHT22;1032;52.542;13.440;2022-09-16T15:43:03;19.00;61.30
2054;DHT22;1032;52.542;13.440;2022-09-16T15:45:32;19.00;61.80
2054;DHT22;1032;52.542;13.440;2022-09-16T15:48:01;18.90;62.00
2054;DHT22;1032;52.542;13.440;2022-09-16T15:50:37;18.70;61.90
2054;DHT22;1032;52.542;13.440;2022-09-16T15:53:09;19.00;62.10
2054;DHT22;1032;52.542;13.440;2022-09-16T15:55:40;18.80;61.20
2054;DHT22;1032;52.542;13.440;2022-09-16T15:58:13;19.00;61.60
2054;DHT22;1032;52.542;13.440;2022-09-16T16:00:58;18.80;61.90
2054;DHT22;1032;52.542;13.440;2022-09-16T16:03:30;18.70;62.40
2054;DHT22;1032;52.542;13.440;2022-09-16T16:05:58;18.50;63.00
2054;DHT22;1032;52.542;13.440;2022-09-16T16:08:45;18.40;63.70
2054;DHT22;1032;52.542;13.440;2022-09-16T16:11:14;18.30;64.20
2054;DHT22;1032;52.542;13.440;2022-09-16T16:13:41;18.10;64.40
2054;DHT22;1032;52.542;13.440;2022-09-16T16:16:10;18.20;64.90
2054;DHT22;1032;52.542;13.440;2022-09-16T16:18:40;18.10;65.30
2054;DHT22;1032;52.542;13.440;2022-09-16T16:21:08;18.10;65.40